Time;durP1;ratioP1;P1;durP2;ratioP2;P2;SDS_P1;SDS_P2;PMS_P1;PMS_P2;Temp;Humidity;BMP_temperature;BMP_pressure;BME280_temperature;BME280_humidity;BME280_pressure;Samples;Min_cycle;Max_cycle;Signal;HPM_P1;HPM_P2
2024/01/31 00:00:38;;;;;;;22.70;11.90;;;;;;;2.08;49.52;98628.41;104582;1264;101342;-74
2024/01/31 00:03:25;;;;;;;20.60;11.40;;;;;;;2.05;49.71;98626.91;104686;1273;101005;-83
2024/01/31 00:05:53;;;;;;;20.40;11.00;;;;;;;2.01;49.56;98627.95;104557;1264;97996;-83
2024/01/31 00:08:21;;;;;;;18.30;10.20;;;;;;;1.96;49.68;98629.41;104588;1258;98472;-83
2024/01/31 00:10:49;;;;;;;18.20;10.40;;;;;;;1.93;49.69;98624.70;104598;1271;103468;-83
2024/01/31 00:13:17;;;;;;;19.00;10.40;;;;;;;1.89;49.70;98626.06;104535;1264;101411;-83
2024/01/31 00:15:45;;;;;;;18.50;10.70;;;;;;;1.88;49.70;98625.67;104519;1264;98932;-75
2024/01/31 00:18:12;;;;;;;19.90;11.20;;;;;;;1.87;49.90;98633.74;104491;1273;97999;-74
2024/01/31 00:20:40;;;;;;;19.10;11.40;;;;;;;1.86;49.89;98639.31;104556;1258;98428;-74
2024/01/31 00:23:08;;;;;;;18.20;10.10;;;;;;;1.87;49.88;98639.74;104596;1271;102238;-76
2024/01/31 00:25:36;;;;;;;19.20;10.50;;;;;;;1.86;49.72;98636.45;104566;1261;101422;-76
2024/01/31 00:28:03;;;;;;;19.00;10.40;;;;;;;1.86;49.82;98638.78;104499;1258;99574;-76
2024/01/31 00:30:31;;;;;;;19.70;10.00;;;;;;;1.84;49.79;98638.92;104555;1262;97931;-76
2024/01/31 00:32:59;;;;;;;17.70;9.70;;;;;;;1.81;49.81;98636.35;104593;1263;99644;-83
2024/01/31 00:35:26;;;;;;;20.00;9.70;;;;;;;1.78;49.78;98633.90;104507;1273;103608;-83
2024/01/31 00:37:55;;;;;;;16.80;9.30;;;;;;;1.77;49.86;98633.13;104550;1271;99250;-83
2024/01/31 00:40:22;;;;;;;17.30;10.20;;;;;;;1.76;49.83;98629.80;104616;1269;99982;-83
2024/01/31 00:42:50;;;;;;;18.70;9.80;;;;;;;1.75;49.79;98629.55;104541;1264;98598;-83
2024/01/31 00:45:18;;;;;;;16.40;8.90;;;;;;;1.74;49.78;98628.92;104518;1273;98469;-83
2024/01/31 00:47:45;;;;;;;17.50;9.60;;;;;;;1.73;49.85;98627.23;104556;1264;102463;-74
2024/01/31 00:50:13;;;;;;;18.40;9.10;;;;;;;1.71;49.91;98626.48;104528;1258;101366;-74
2024/01/31 00:52:42;;;;;;;15.20;9.00;;;;;;;1.69;50.01;98627.37;104546;1258;100194;-74
2024/01/31 00:55:10;;;;;;;16.50;8.80;;;;;;;1.67;49.88;98627.16;104542;1263;97887;-74
2024/01/31 00:57:38;;;;;;;16.80;9.10;;;;;;;1.67;49.92;98627.72;104564;1264;99196;-74
2024/01/31 01:00:08;;;;;;;15.70;9.20;;;;;;;1.65;49.49;98622.42;104526;1263;103500;-73
2024/01/31 01:02:36;;;;;;;16.60;9.60;;;;;;;1.65;49.09;98617.61;104541;1261;109825;-73
2024/01/31 01:05:04;;;;;;;19.60;10.20;;;;;;;1.69;49.05;98623.66;104555;1261;100077;-73
2024/01/31 01:07:32;;;;;;;17.60;10.00;;;;;;;1.73;48.93;98626.16;104541;1257;98265;-73
2024/01/31 01:10:00;;;;;;;20.00;10.90;;;;;;;1.72;49.20;98626.38;104678;1262;98431;-73
2024/01/31 01:12:27;;;;;;;20.30;10.60;;;;;;;1.68;49.22;98623.74;104549;1264;103826;-73
2024/01/31 01:14:55;;;;;;;23.60;11.10;;;;;;;1.63;49.35;98622.55;104504;1264;101069;-73
2024/01/31 01:17:23;;;;;;;20.60;10.90;;;;;;;1.57;49.54;98620.02;104561;1264;100143;-74
2024/01/31 01:19:51;;;;;;;22.20;11.30;;;;;;;1.55;49.73;98618.11;104594;1264;98637;-74
2024/01/31 01:22:19;;;;;;;21.20;11.90;;;;;;;1.51;49.79;98617.02;104553;1274;99528;-76
2024/01/31 01:24:47;;;;;;;22.30;12.10;;;;;;;1.46;50.02;98615.44;104517;1262;102602;-76
2024/01/31 01:27:14;;;;;;;21.40;11.00;;;;;;;1.41;50.23;98615.48;104532;1264;101348;-76
2024/01/31 01:29:42;;;;;;;18.70;10.30;;;;;;;1.37;50.33;98611.21;104504;1261;100121;-76
2024/01/31 01:32:10;;;;;;;19.30;10.40;;;;;;;1.34;50.41;98615.23;104325;1264;97967;-82
2024/01/31 01:34:41;;;;;;;23.30;11.00;;;;;;;1.30;50.37;98619.06;104509;1264;98451;-83
2024/01/31 01:37:09;;;;;;;17.10;9.00;;;;;;;1.28;50.54;98620.31;104608;1263;103711;-83
2024/01/31 01:39:39;;;;;;;15.90;9.00;;;;;;;1.26;50.51;98621.02;104521;1264;100136;-83
2024/01/31 01:42:07;;;;;;;17.60;9.70;;;;;;;1.23;50.65;98620.90;104604;1259;99960;-83
2024/01/31 01:44:34;;;;;;;19.50;9.80;;;;;;;1.21;50.78;98621.09;104515;1274;97935;-82
2024/01/31 01:47:02;;;;;;;15.50;8.20;;;;;;;1.17;50.65;98624.21;104568;1262;98426;-83
2024/01/31 01:49:33;;;;;;;13.40;8.10;;;;;;;1.14;50.39;98620.73;104479;1274;103521;-83
2024/01/31 01:52:01;;;;;;;17.80;8.20;;;;;;;1.13;50.36;98617.94;104563;1263;100521;-83
2024/01/31 01:54:30;;;;;;;15.50;9.30;;;;;;;1.15;50.30;98617.31;104532;1280;100087;-83
2024/01/31 01:56:58;;;;;;;14.70;8.60;;;;;;;1.15;50.34;98614.96;104542;1264;97916;-83
2024/01/31 01:59:26;;;;;;;18.90;9.90;;;;;;;1.14;50.45;98614.16;104563;1262;98439;-83
2024/01/31 02:01:54;;;;;;;19.60;10.80;;;;;;;1.09;50.72;98611.53;104524;1258;103523;-83
2024/01/31 02:04:23;;;;;;;24.90;11.70;;;;;;;1.03;50.79;98614.29;104587;1274;100113;-84
2024/01/31 02:06:51;;;;;;;20.70;11.40;;;;;;;0.98;51.11;98610.85;104542;1258;99325;-83
2024/01/31 02:09:20;;;;;;;21.30;11.00;;;;;;;0.89;51.20;98606.38;104633;1263;99233;-84
2024/01/31 02:11:48;;;;;;;24.00;11.90;;;;;;;0.84;51.25;98606.60;104618;1262;99247;-83
2024/01/31 02:14:15;;;;;;;20.50;11.50;;;;;;;0.80;51.31;98609.77;104504;1263;102326;-83
2024/01/31 02:16:46;;;;;;;24.10;10.90;;;;;;;0.76;51.41;98606.77;104633;1262;101340;-83
2024/01/31 02:19:14;;;;;;;18.70;10.40;;;;;;;0.73;51.49;98609.66;104546;1264;100232;-83
2024/01/31 02:21:44;;;;;;;20.40;11.40;;;;;;;0.71;51.56;98609.45;104573;1274;99208;-84
2024/01/31 02:24:12;;;;;;;23.50;11.80;;;;;;;0.71;51.62;98609.48;104585;1262;99236;-82
2024/01/31 02:26:39;;;;;;;20.50;10.80;;;;;;;0.68;51.63;98608.09;104517;1260;103433;-83
2024/01/31 02:29:07;;;;;;;19.90;10.20;;;;;;;0.64;51.82;98607.49;104545;1260;101552;-83
2024/01/31 02:31:35;;;;;;;18.40;9.50;;;;;;;0.61;52.01;98612.48;104564;1262;100035;-83
2024/01/31 02:34:03;;;;;;;18.80;9.60;;;;;;;0.62;52.04;98608.75;104513;1262;98065;-83
2024/01/31 02:36:30;;;;;;;18.90;10.40;;;;;;;0.63;52.00;98605.09;104558;1262;98463;-83
2024/01/31 02:38:58;;;;;;;15.30;8.50;;;;;;;0.62;51.95;98603.02;104611;1262;103458;-83
2024/01/31 02:41:25;;;;;;;14.90;9.20;;;;;;;0.63;51.89;98605.60;104578;1262;100313;-83
2024/01/31 02:43:53;;;;;;;15.70;8.60;;;;;;;0.65;51.96;98609.38;104551;1274;100007;-84
2024/01/31 02:46:21;;;;;;;17.10;9.60;;;;;;;0.66;51.88;98608.92;104548;1262;99234;-76
2024/01/31 02:48:49;;;;;;;18.50;9.70;;;;;;;0.67;52.08;98607.07;104544;1262;99586;-76
2024/01/31 02:51:16;;;;;;;16.70;9.80;;;;;;;0.67;52.21;98613.30;104578;1262;103631;-75
2024/01/31 02:53:44;;;;;;;19.30;10.10;;;;;;;0.66;52.11;98609.67;104564;1273;101405;-76
2024/01/31 02:56:11;;;;;;;16.40;9.20;;;;;;;0.66;52.17;98608.27;104528;1262;99079;-76
2024/01/31 02:58:39;;;;;;;14.80;9.20;;;;;;;0.64;52.20;98609.98;104494;1265;97967;-76
2024/01/31 03:01:07;;;;;;;23.20;11.80;;;;;;;0.59;52.26;98607.36;104562;1264;99516;-75
2024/01/31 03:03:35;;;;;;;19.50;10.40;;;;;;;0.57;52.41;98607.89;104629;1258;110534;-76
2024/01/31 03:06:03;;;;;;;16.70;10.20;;;;;;;0.55;52.52;98607.86;104657;1264;101576;-76
2024/01/31 03:08:31;;;;;;;19.30;10.40;;;;;;;0.52;52.72;98606.83;104526;1264;100058;-76
2024/01/31 03:10:58;;;;;;;19.10;10.70;;;;;;;0.49;52.86;98604.48;104522;1264;97931;-76
2024/01/31 03:13:26;;;;;;;17.90;10.10;;;;;;;0.47;52.80;98603.01;104579;1262;99611;-74
2024/01/31 03:15:54;;;;;;;18.70;9.60;;;;;;;0.49;52.87;98604.27;104659;1262;103926;-74
2024/01/31 03:18:21;;;;;;;16.20;9.50;;;;;;;0.49;52.95;98603.01;104506;1262;101433;-74
2024/01/31 03:20:54;;;;;;;19.60;11.00;;;;;;;0.50;52.92;98604.89;104497;1263;98730;-74
2024/01/31 03:23:22;;;;;;;16.00;9.40;;;;;;;0.51;52.94;98607.16;104542;1274;99154;-74
2024/01/31 03:25:50;;;;;;;17.80;9.30;;;;;;;0.53;53.10;98612.31;104521;1272;99186;-74
2024/01/31 03:28:18;;;;;;;15.80;9.10;;;;;;;0.51;53.10;98611.41;104529;1264;103191;-74
2024/01/31 03:30:45;;;;;;;17.80;10.00;;;;;;;0.49;53.21;98613.48;104565;1262;108499;-74
2024/01/31 03:33:13;;;;;;;17.40;8.40;;;;;;;0.47;53.24;98614.34;104533;1274;99861;-74
2024/01/31 03:35:40;;;;;;;17.80;9.40;;;;;;;0.48;53.30;98614.67;104496;1257;99226;-73
2024/01/31 03:38:09;;;;;;;20.30;10.30;;;;;;;0.47;53.30;98613.13;104538;1260;98453;-73
2024/01/31 03:40:38;;;;;;;15.90;8.80;;;;;;;0.47;53.25;98617.05;104610;1264;103654;-73
2024/01/31 03:43:06;;;;;;;13.80;9.30;;;;;;;0.48;53.17;98615.73;104565;1268;102038;-73
2024/01/31 03:45:37;;;;;;;12.30;8.00;;;;;;;0.48;53.25;98612.33;104541;1257;99345;-74
2024/01/31 03:48:05;;;;;;;16.00;8.30;;;;;;;0.49;53.35;98612.57;104512;1264;99241;-74
2024/01/31 03:50:33;;;;;;;15.30;8.60;;;;;;;0.51;53.29;98610.28;104515;1264;98434;-74
2024/01/31 03:53:00;;;;;;;14.80;7.80;;;;;;;0.55;53.37;98616.96;104597;1263;103370;-74
2024/01/31 03:55:28;;;;;;;13.00;7.20;;;;;;;0.56;53.35;98613.98;104558;1259;101509;-74
2024/01/31 03:57:56;;;;;;;11.60;8.40;;;;;;;0.59;53.22;98613.95;104516;1263;99807;-74
2024/01/31 04:00:23;;;;;;;15.30;8.70;;;;;;;0.63;53.19;98616.84;104499;1262;99137;-74
2024/01/31 04:02:51;;;;;;;15.20;8.00;;;;;;;0.65;53.08;98621.39;104520;1261;98456;-73
2024/01/31 04:05:19;;;;;;;16.90;8.50;;;;;;;0.69;53.14;98616.01;104614;1264;103419;-73
2024/01/31 04:07:47;;;;;;;14.50;8.20;;;;;;;0.70;53.27;98611.86;104555;1258;101663;-73
2024/01/31 04:10:15;;;;;;;13.90;8.80;;;;;;;0.70;53.33;98610.58;104506;1263;99250;-73
2024/01/31 04:12:43;;;;;;;12.40;8.00;;;;;;;0.71;53.34;98605.91;104549;1261;98373;-83
2024/01/31 04:15:10;;;;;;;15.00;8.60;;;;;;;0.73;53.31;98612.81;104568;1263;99128;-84
2024/01/31 04:17:38;;;;;;;11.90;8.30;;;;;;;0.73;53.36;98614.55;104602;1262;103506;-84
2024/01/31 04:20:07;;;;;;;18.00;9.30;;;;;;;0.74;53.46;98620.52;104552;1264;101491;-84
2024/01/31 04:22:35;;;;;;;16.40;9.40;;;;;;;0.74;53.37;98615.55;104580;1264;99116;-83
2024/01/31 04:25:03;;;;;;;15.60;9.70;;;;;;;0.77;53.48;98619.61;104543;1261;99249;-82
2024/01/31 04:27:31;;;;;;;15.00;9.10;;;;;;;0.79;53.49;98620.67;104495;1264;98450;-86
2024/01/31 04:30:00;;;;;;;15.80;9.50;;;;;;;0.81;53.55;98616.96;104600;1264;103343;-83
2024/01/31 04:32:27;;;;;;;17.70;9.30;;;;;;;0.81;53.55;98613.98;104626;1262;101228;-74
2024/01/31 04:34:55;;;;;;;19.10;10.40;;;;;;;0.79;53.53;98612.50;104557;1262;99957;-74
2024/01/31 04:37:23;;;;;;;15.70;9.50;;;;;;;0.80;53.59;98615.48;104525;1262;97932;-74
2024/01/31 04:39:51;;;;;;;17.40;10.40;;;;;;;0.81;53.60;98619.64;104559;1262;98419;-74
2024/01/31 04:42:19;;;;;;;16.10;9.30;;;;;;;0.81;53.65;98620.70;104524;1262;103639;-73
2024/01/31 04:44:47;;;;;;;18.70;10.00;;;;;;;0.83;53.65;98627.66;104576;1262;101174;-74
2024/01/31 04:47:14;;;;;;;16.60;10.40;;;;;;;0.84;53.58;98629.32;104533;1262;100033;-77
2024/01/31 04:49:42;;;;;;;17.90;10.00;;;;;;;0.85;53.66;98627.09;104551;1262;97947;-77
2024/01/31 04:52:10;;;;;;;13.10;8.80;;;;;;;0.86;53.75;98627.19;104596;1274;99797;-76
2024/01/31 04:54:39;;;;;;;15.90;9.40;;;;;;;0.86;53.83;98627.16;104514;1273;103556;-77
2024/01/31 04:57:07;;;;;;;32.60;14.10;;;;;;;0.87;53.96;98626.20;104548;1258;101854;-77
2024/01/31 04:59:42;;;;;;;30.10;11.70;;;;;;;0.87;54.02;98621.48;104544;1262;99655;-76
2024/01/31 05:02:10;;;;;;;21.00;11.00;;;;;;;0.85;53.87;98623.89;104587;1262;98002;-76
2024/01/31 05:04:38;;;;;;;19.30;10.20;;;;;;;0.87;53.86;98626.10;104605;1262;98449;-76
2024/01/31 05:07:06;;;;;;;24.40;11.80;;;;;;;0.87;53.95;98628.69;104569;1260;103583;-76
2024/01/31 05:09:34;;;;;;;19.80;12.10;;;;;;;0.89;54.16;98624.52;104589;1262;101611;-83
2024/01/31 05:12:01;;;;;;;28.30;14.60;;;;;;;0.89;54.28;98625.71;104523;1262;99497;-83
2024/01/31 05:14:29;;;;;;;39.90;18.20;;;;;;;0.89;54.32;98629.11;104538;1264;97907;-83
2024/01/31 05:16:57;;;;;;;30.50;14.50;;;;;;;0.89;54.43;98630.50;104582;1274;99855;-83
2024/01/31 05:19:25;;;;;;;27.60;15.70;;;;;;;0.89;54.56;98629.61;104432;1264;166759;-83
2024/01/31 05:21:53;;;;;;;41.10;22.60;;;;;;;0.89;54.71;98632.51;104527;1262;101075;-83
2024/01/31 05:24:20;;;;;;;27.60;14.10;;;;;;;0.88;54.62;98635.36;104483;1275;100077;-83
2024/01/31 05:26:49;;;;;;;25.90;13.20;;;;;;;0.89;54.58;98637.27;104551;1275;98935;-83
2024/01/31 05:29:17;;;;;;;21.20;11.60;;;;;;;0.90;54.65;98639.27;104633;1262;99791;-73
2024/01/31 05:31:44;;;;;;;22.00;11.30;;;;;;;0.90;54.83;98642.30;104655;1262;103591;-73
2024/01/31 05:34:12;;;;;;;27.30;13.30;;;;;;;0.89;54.92;98640.48;104573;1262;101277;-73
2024/01/31 05:36:40;;;;;;;26.60;12.20;;;;;;;0.88;55.09;98639.31;104571;1262;100270;-73
2024/01/31 05:39:07;;;;;;;19.90;12.20;;;;;;;0.87;55.16;98639.53;104546;1262;99008;-73
2024/01/31 05:41:35;;;;;;;23.60;12.70;;;;;;;0.88;55.13;98638.93;104567;1264;98425;-73
2024/01/31 05:44:03;;;;;;;19.60;12.10;;;;;;;0.89;55.02;98631.55;104533;1260;103684;-73
2024/01/31 05:46:32;;;;;;;21.90;12.00;;;;;;;0.91;55.08;98629.09;104354;1266;100851;-74
2024/01/31 05:49:02;;;;;;;25.20;13.70;;;;;;;0.93;55.06;98632.18;104528;1264;99726;-76
2024/01/31 05:51:32;;;;;;;23.60;13.90;;;;;;;0.94;55.22;98635.45;104561;1261;97897;-74
2024/01/31 05:54:00;;;;;;;28.10;13.80;;;;;;;0.94;55.30;98637.55;104551;1258;98841;-74
2024/01/31 05:56:27;;;;;;;22.00;11.70;;;;;;;0.93;55.16;98631.45;104519;1262;103507;-74
2024/01/31 05:58:55;;;;;;;23.40;10.60;;;;;;;0.94;55.19;98632.42;104479;1262;100370;-74
2024/01/31 06:01:23;;;;;;;18.50;10.30;;;;;;;0.96;55.18;98632.44;104562;1259;98561;-74
2024/01/31 06:03:50;;;;;;;18.90;10.10;;;;;;;0.99;55.04;98632.18;104511;1262;99266;-74
2024/01/31 06:06:18;;;;;;;18.60;11.10;;;;;;;1.02;55.08;98632.65;104631;1257;98460;-76
2024/01/31 06:08:46;;;;;;;18.90;10.80;;;;;;;1.05;55.11;98631.54;104545;1264;103557;-73
2024/01/31 06:11:14;;;;;;;18.50;10.60;;;;;;;1.06;55.23;98632.01;104523;1263;101308;-73
2024/01/31 06:13:41;;;;;;;21.30;11.20;;;;;;;1.06;55.36;98636.27;104543;1268;99803;-73
2024/01/31 06:16:10;;;;;;;25.60;13.20;;;;;;;1.06;55.46;98636.09;104505;1262;97922;-73
2024/01/31 06:18:38;;;;;;;28.10;14.50;;;;;;;1.05;55.56;98638.95;104513;1262;98481;-73
2024/01/31 06:21:06;;;;;;;31.00;15.50;;;;;;;1.05;55.67;98640.03;104552;1258;103793;-73
2024/01/31 06:23:33;;;;;;;23.20;12.60;;;;;;;1.07;55.71;98641.16;104565;1262;101468;-73
2024/01/31 06:26:02;;;;;;;22.70;12.30;;;;;;;1.08;55.60;98646.69;104560;1257;99326;-84
2024/01/31 06:28:30;;;;;;;19.90;11.80;;;;;;;1.12;55.56;98648.40;104608;1263;97919;-83
2024/01/31 06:31:03;;;;;;;26.80;13.10;;;;;;;1.14;55.70;98653.05;104574;1272;98450;-83
2024/01/31 06:33:34;;;;;;;27.80;13.00;;;;;;;1.16;55.79;98651.94;104620;1262;103731;-83
2024/01/31 06:36:03;;;;;;;27.90;14.30;;;;;;;1.19;55.87;98650.85;104760;1266;101519;-83
2024/01/31 06:38:30;;;;;;;22.40;13.00;;;;;;;1.21;55.84;98649.98;104869;1259;100002;-83
2024/01/31 06:40:58;;;;;;;24.60;13.10;;;;;;;1.23;55.79;98649.94;104627;1263;99275;-83
2024/01/31 06:43:26;;;;;;;25.50;14.20;;;;;;;1.27;55.86;98653.75;104578;1264;99152;-83
2024/01/31 06:45:54;;;;;;;24.00;13.60;;;;;;;1.29;55.83;98656.04;104604;1262;103288;-73
2024/01/31 06:48:22;;;;;;;29.60;14.90;;;;;;;1.33;55.87;98657.68;104529;1262;101149;-73
2024/01/31 06:50:50;;;;;;;27.10;13.60;;;;;;;1.35;56.08;98658.36;104509;1259;98808;-73
2024/01/31 06:53:18;;;;;;;23.60;14.00;;;;;;;1.37;55.99;98656.42;104595;1262;97918;-73
2024/01/31 06:55:46;;;;;;;27.90;14.10;;;;;;;1.40;56.08;98653.89;104573;1262;98444;-73
2024/01/31 06:58:14;;;;;;;26.30;14.40;;;;;;;1.43;56.01;98650.81;104552;1269;103476;-73
2024/01/31 07:00:41;;;;;;;24.20;14.00;;;;;;;1.45;55.93;98650.96;104590;1259;103532;-73
2024/01/31 07:03:09;;;;;;;27.70;15.00;;;;;;;1.48;55.87;98649.73;104553;1261;100154;-73
2024/01/31 07:05:37;;;;;;;25.00;14.00;;;;;;;1.51;55.95;98651.27;104572;1262;98044;-73
2024/01/31 07:08:05;;;;;;;24.90;14.70;;;;;;;1.53;55.93;98653.02;104496;1265;98736;-73
2024/01/31 07:10:33;;;;;;;29.90;15.60;;;;;;;1.56;56.02;98646.54;104666;1262;103764;-73
2024/01/31 07:13:01;;;;;;;43.50;24.80;;;;;;;1.60;56.08;98646.06;104640;1262;101292;-73
2024/01/31 07:15:28;;;;;;;30.60;14.20;;;;;;;1.63;56.05;98643.30;104598;1259;100058;-73
2024/01/31 07:17:56;;;;;;;24.90;13.20;;;;;;;1.66;56.07;98645.70;104484;1265;98009;-73
2024/01/31 07:20:24;;;;;;;27.80;14.80;;;;;;;1.71;56.18;98648.85;104669;1261;98550;-73
2024/01/31 07:22:51;;;;;;;34.60;16.90;;;;;;;1.77;56.15;98652.47;104658;1259;103570;-73
2024/01/31 07:25:19;;;;;;;37.50;18.60;;;;;;;1.80;56.14;98655.02;104599;1263;101284;-74
2024/01/31 07:27:47;;;;;;;34.40;17.90;;;;;;;1.85;56.23;98655.39;104481;1262;100287;-73
2024/01/31 07:30:15;;;;;;;31.60;16.60;;;;;;;1.91;56.37;98659.67;104518;1262;98833;-73
2024/01/31 07:32:42;;;;;;;31.00;16.90;;;;;;;1.97;56.25;98665.70;104486;1259;98401;-73
2024/01/31 07:35:11;;;;;;;29.10;16.90;;;;;;;2.05;56.26;98665.79;104532;1259;104396;-73
2024/01/31 07:37:39;;;;;;;26.00;15.30;;;;;;;2.11;56.07;98668.96;104648;1260;101717;-73
2024/01/31 07:40:09;;;;;;;28.50;15.10;;;;;;;2.19;56.11;98667.77;104502;1264;107988;-73
2024/01/31 09:54:00;;;;;;;25.30;15.40;;;;;;;5.64;51.72;98661.41;104496;1264;102357;-73
2024/01/31 09:56:31;;;;;;;21.90;13.50;;;;;;;5.70;51.75;98658.65;104556;1265;100298;-73
2024/01/31 09:58:59;;;;;;;20.10;11.50;;;;;;;5.77;51.83;98658.67;104529;1265;99243;-73
2024/01/31 10:01:27;;;;;;;21.00;12.60;;;;;;;5.84;51.50;98659.95;104601;1270;98355;-83
2024/01/31 10:03:57;;;;;;;23.00;12.80;;;;;;;5.90;51.56;98663.63;104544;1262;103802;-83
2024/01/31 10:06:26;;;;;;;21.10;12.40;;;;;;;5.98;51.57;98663.25;104681;1265;100370;-83
2024/01/31 10:08:54;;;;;;;21.80;13.80;;;;;;;6.04;51.43;98660.65;104609;1262;100037;-83
2024/01/31 10:11:22;;;;;;;23.50;14.20;;;;;;;6.05;50.97;98656.75;104539;1258;97932;-83
2024/01/31 10:13:50;;;;;;;25.70;13.80;;;;;;;5.96;50.75;98652.65;104584;1265;99229;-83
2024/01/31 10:16:18;;;;;;;26.40;15.10;;;;;;;5.96;51.02;98650.59;104532;1262;102552;-84
2024/01/31 10:18:46;;;;;;;26.40;16.30;;;;;;;5.99;50.91;98645.08;104504;1266;100325;-83
2024/01/31 10:21:13;;;;;;;27.30;14.90;;;;;;;6.06;51.03;98637.76;104508;1265;100179;-83
2024/01/31 10:23:41;;;;;;;32.50;15.00;;;;;;;6.14;51.20;98635.49;104527;1263;97974;-83
2024/01/31 10:26:09;;;;;;;21.50;13.80;;;;;;;6.26;51.22;98633.48;104530;1259;98419;-84
2024/01/31 10:28:37;;;;;;;22.80;12.30;;;;;;;6.39;51.12;98634.41;104592;1267;102625;-83
2024/01/31 10:31:05;;;;;;;25.60;14.00;;;;;;;6.57;50.80;98636.02;104591;1262;101555;-84
2024/01/31 10:33:35;;;;;;;22.40;13.30;;;;;;;6.68;50.39;98637.15;104507;1259;100161;-84
2024/01/31 10:36:03;;;;;;;23.00;14.50;;;;;;;6.77;50.21;98630.86;104564;1263;97963;-74
2024/01/31 10:38:33;;;;;;;24.50;13.70;;;;;;;6.84;50.26;98628.20;104688;1262;98345;-74
2024/01/31 10:41:03;;;;;;;26.00;14.80;;;;;;;6.85;50.16;98630.79;104588;1265;103276;-74
2024/01/31 10:43:33;;;;;;;21.00;14.20;;;;;;;6.83;50.23;98627.49;104659;1265;101742;-74
2024/01/31 10:46:01;;;;;;;23.50;13.60;;;;;;;6.85;50.26;98625.22;104576;1260;101532;-74
2024/01/31 10:48:28;;;;;;;26.70;15.50;;;;;;;6.87;50.13;98620.10;104542;1264;98287;-73
2024/01/31 10:51:00;;;;;;;26.00;14.90;;;;;;;6.86;50.03;98617.77;104547;1262;99647;-73
2024/01/31 10:53:30;;;;;;;24.70;14.10;;;;;;;6.83;50.15;98615.89;104560;1275;110536;-73
2024/01/31 10:55:59;;;;;;;24.00;14.60;;;;;;;6.81;49.88;98613.74;104578;1265;101978;-73
2024/01/31 10:58:29;;;;;;;27.50;14.80;;;;;;;6.79;49.95;98612.95;104498;1275;99246;-73
2024/01/31 11:00:57;;;;;;;26.70;14.20;;;;;;;6.78;50.20;98611.94;104590;1265;97911;-74
2024/01/31 11:03:24;;;;;;;25.40;15.00;;;;;;;6.77;50.24;98607.27;104544;1261;98429;-73
2024/01/31 11:05:53;;;;;;;26.10;14.90;;;;;;;6.76;50.15;98604.30;104648;1265;103561;-73
2024/01/31 11:08:23;;;;;;;28.30;16.60;;;;;;;6.72;50.17;98601.29;104574;1275;101117;-73
2024/01/31 11:10:51;;;;;;;27.90;15.20;;;;;;;6.72;50.30;98597.73;104553;1265;99865;-73
2024/01/31 11:13:19;;;;;;;27.30;15.00;;;;;;;6.73;50.29;98594.79;104533;1263;97945;-73
2024/01/31 11:15:48;;;;;;;26.50;15.00;;;;;;;6.73;50.22;98587.10;104558;1275;98437;-74
2024/01/31 11:18:16;;;;;;;27.50;15.80;;;;;;;6.73;50.53;98587.30;104949;1259;103603;-74
2024/01/31 11:20:49;;;;;;;27.30;15.30;;;;;;;6.69;50.53;98583.89;104604;1262;101348;-74
2024/01/31 11:23:20;;;;;;;25.90;15.20;;;;;;;6.64;50.28;98587.28;104549;1262;99985;-74
2024/01/31 11:25:48;;;;;;;28.10;15.40;;;;;;;6.59;50.31;98583.02;104585;1260;97891;-74
2024/01/31 11:28:18;;;;;;;27.70;16.40;;;;;;;6.55;50.56;98581.08;104870;1262;98445;-74
2024/01/31 11:30:50;;;;;;;31.00;17.40;;;;;;;6.55;50.70;98580.57;104735;1262;103719;-73
2024/01/31 11:33:18;;;;;;;30.30;17.40;;;;;;;6.56;50.68;98580.31;104645;1261;100341;-73
2024/01/31 11:35:46;;;;;;;32.60;16.50;;;;;;;6.55;50.86;98580.57;104592;1262;99949;-73
2024/01/31 11:38:15;;;;;;;30.00;16.90;;;;;;;6.54;50.78;98578.19;104577;1260;97906;-73
2024/01/31 11:40:42;;;;;;;28.30;17.70;;;;;;;6.52;50.84;98572.34;104765;1258;98536;-73
2024/01/31 11:43:10;;;;;;;30.50;18.00;;;;;;;6.52;51.02;98569.23;104557;1265;103625;-73
2024/01/31 11:45:39;;;;;;;31.50;18.70;;;;;;;6.53;51.32;98562.20;104707;1263;101624;-73
2024/01/31 11:48:07;;;;;;;29.60;17.00;;;;;;;6.53;51.34;98557.20;104548;1259;99909;-73
2024/01/31 11:50:35;;;;;;;30.60;17.40;;;;;;;6.55;51.42;98556.39;104592;1265;97915;-73
2024/01/31 11:53:03;;;;;;;32.00;17.00;;;;;;;6.60;51.55;98552.55;104555;1262;97993;-73
2024/01/31 11:55:31;;;;;;;29.80;16.20;;;;;;;6.63;51.62;98559.39;104656;1262;102704;-73
2024/01/31 11:57:59;;;;;;;30.60;16.00;;;;;;;6.62;51.41;98560.69;104508;1266;101346;-73
2024/01/31 12:00:27;;;;;;;28.30;15.60;;;;;;;6.61;51.43;98557.59;104515;1262;99120;-73
2024/01/31 12:02:54;;;;;;;30.90;18.10;;;;;;;6.62;51.71;98549.34;104504;1265;98000;-73
2024/01/31 12:05:22;;;;;;;29.60;18.10;;;;;;;6.64;51.74;98547.50;104518;1262;98444;-73
2024/01/31 12:07:57;;;;;;;30.70;17.10;;;;;;;6.65;51.85;98542.17;108118;1258;103450;-74
2024/01/31 12:10:27;;;;;;;29.20;16.80;;;;;;;6.64;51.55;98537.52;106747;1263;100335;-74
2024/01/31 12:13:00;;;;;;;25.70;15.90;;;;;;;6.64;51.34;98536.30;105855;1263;100488;-83
2024/01/31 12:15:29;;;;;;;28.80;16.60;;;;;;;6.64;51.40;98532.45;104631;1273;97917;-84
2024/01/31 12:17:57;;;;;;;32.10;18.40;;;;;;;6.64;51.53;98536.50;104613;1261;98435;-73
2024/01/31 12:20:26;;;;;;;29.90;16.90;;;;;;;6.65;51.68;98537.98;104640;1260;103759;-73
2024/01/31 12:22:53;;;;;;;30.20;17.00;;;;;;;6.64;51.83;98541.15;104533;1262;101443;-73
2024/01/31 12:25:21;;;;;;;31.10;18.10;;;;;;;6.65;51.84;98549.30;104494;1262;99032;-73
2024/01/31 12:27:49;;;;;;;35.30;18.20;;;;;;;6.67;51.93;98544.96;104619;1265;97925;-73
2024/01/31 12:30:17;;;;;;;26.90;17.50;;;;;;;6.69;51.99;98547.23;104761;1262;98405;-74
2024/01/31 12:32:45;;;;;;;30.10;18.10;;;;;;;6.70;51.89;98543.58;104610;1265;102492;-83
2024/01/31 12:35:12;;;;;;;32.90;18.30;;;;;;;6.71;51.86;98548.82;104596;1259;101252;-84
2024/01/31 12:37:40;;;;;;;33.00;19.10;;;;;;;6.73;51.81;98553.60;104641;1262;100226;-83
2024/01/31 12:40:08;;;;;;;33.20;19.30;;;;;;;6.75;51.70;98551.13;104516;1262;97884;-83
2024/01/31 12:42:36;;;;;;;32.90;19.80;;;;;;;6.73;51.70;98549.88;104589;1262;98434;-83
2024/01/31 12:45:04;;;;;;;31.50;18.60;;;;;;;6.70;51.75;98548.59;104321;1268;102753;-83
2024/01/31 12:47:34;;;;;;;34.90;21.40;;;;;;;6.71;51.76;98550.29;104562;1263;101638;-84
2024/01/31 12:50:02;;;;;;;34.20;21.70;;;;;;;6.71;51.72;98551.31;104536;1275;99970;-84
2024/01/31 12:52:30;;;;;;;32.90;19.90;;;;;;;6.69;51.58;98549.38;104457;1265;98131;-74
2024/01/31 12:54:58;;;;;;;32.90;19.40;;;;;;;6.66;51.72;98554.00;104548;1262;98465;-73
2024/01/31 12:57:26;;;;;;;31.50;18.50;;;;;;;6.65;51.81;98550.88;104526;1262;103567;-73
2024/01/31 12:59:54;;;;;;;30.60;18.40;;;;;;;6.64;51.59;98547.56;104542;1259;100814;-73
2024/01/31 13:02:22;;;;;;;34.60;20.00;;;;;;;6.62;51.56;98546.23;104542;1262;99851;-74
2024/01/31 13:04:49;;;;;;;35.10;20.90;;;;;;;6.60;51.84;98551.30;104549;1262;98573;-74
2024/01/31 13:07:17;;;;;;;30.50;18.60;;;;;;;6.58;52.26;98553.41;104531;1273;98579;-74
2024/01/31 13:09:45;;;;;;;28.60;19.10;;;;;;;6.53;52.82;98552.02;104544;1262;103565;-74
2024/01/31 13:12:13;;;;;;;31.20;19.20;;;;;;;6.44;53.48;98552.01;104579;1266;101351;-74
2024/01/31 13:14:40;;;;;;;35.20;20.30;;;;;;;6.36;54.39;98556.75;104441;1265;99190;-74
2024/01/31 13:17:08;;;;;;;34.40;20.60;;;;;;;6.29;55.11;98555.52;104507;1265;97970;-83
2024/01/31 13:19:36;;;;;;;39.50;23.00;;;;;;;6.22;55.45;98550.73;104562;1261;97945;-83
2024/01/31 13:22:04;;;;;;;37.40;23.30;;;;;;;6.16;56.02;98553.27;104533;1263;102611;-84
2024/01/31 13:24:35;;;;;;;38.60;24.30;;;;;;;6.11;56.22;98552.88;104547;1263;101615;-83
2024/01/31 13:27:03;;;;;;;48.50;28.50;;;;;;;6.06;56.78;98548.00;104535;1274;100064;-83
2024/01/31 13:29:31;;;;;;;63.00;35.40;;;;;;;6.00;57.02;98545.98;104530;1265;98863;-73